createdAt,value
2018-12-25T00:01:34.259Z,2.25
2018-12-25T00:04:02.585Z,2.26
2018-12-25T00:06:30.903Z,2.30
2018-12-25T00:08:59.163Z,2.31
2018-12-25T00:11:27.512Z,2.33
2018-12-25T00:13:55.784Z,2.38
2018-12-25T00:16:24.127Z,2.39
2018-12-25T00:18:52.386Z,2.40
2018-12-25T00:21:22.324Z,2.39
2018-12-25T00:23:50.554Z,2.43
2018-12-25T00:26:18.845Z,2.46
2018-12-25T00:28:47.243Z,2.52
2018-12-25T00:31:15.529Z,2.54
2018-12-25T00:33:43.871Z,2.58
2018-12-25T00:36:19.888Z,2.61
2018-12-25T00:38:51.131Z,2.61
2018-12-25T00:41:19.433Z,2.62
2018-12-25T00:43:47.773Z,2.63
2018-12-25T00:46:16.006Z,2.61
2018-12-25T00:48:44.270Z,2.56
2018-12-25T00:51:12.588Z,2.53
2018-12-25T00:53:40.845Z,2.46
2018-12-25T00:56:09.145Z,2.42
2018-12-25T00:58:37.466Z,2.38
2018-12-25T01:01:05.712Z,2.35
2018-12-25T01:03:34.078Z,2.29
2018-12-25T01:06:02.420Z,2.25
2018-12-25T01:08:33.521Z,1.99
2018-12-25T01:11:01.800Z,2.18
2018-12-25T01:13:30.135Z,2.13
2018-12-25T01:15:58.526Z,2.10
2018-12-25T01:18:26.905Z,2.06
2018-12-25T01:20:55.167Z,2.01
2018-12-25T01:23:23.464Z,1.92
2018-12-25T01:25:51.733Z,-0.62
2018-12-25T01:28:20.075Z,1.75
2018-12-25T01:30:48.314Z,1.74
2018-12-25T01:33:16.676Z,1.68
2018-12-25T01:35:44.946Z,1.64
2018-12-25T01:38:13.293Z,1.59
2018-12-25T01:40:41.660Z,1.50
2018-12-25T01:43:10.029Z,1.55
2018-12-25T01:45:38.431Z,1.51
2018-12-25T01:48:06.695Z,1.54
2018-12-25T01:50:34.960Z,1.57
2018-12-25T01:53:07.114Z,1.64
2018-12-25T01:55:35.366Z,1.69
2018-12-25T01:58:03.736Z,1.75
2018-12-25T02:00:32.071Z,1.82
2018-12-25T02:03:00.351Z,1.91
2018-12-25T02:05:28.679Z,1.98
2018-12-25T02:07:57.110Z,2.03
2018-12-25T02:10:27.130Z,2.08
2018-12-25T02:12:55.487Z,2.14
2018-12-25T02:15:23.838Z,2.19
2018-12-25T02:17:52.216Z,2.22
2018-12-25T02:20:20.626Z,2.24
2018-12-25T02:22:48.902Z,2.23
2018-12-25T02:25:17.158Z,2.24
2018-12-25T02:27:45.500Z,2.27
2018-12-25T02:30:13.854Z,2.26
2018-12-25T02:32:42.112Z,2.28
2018-12-25T02:35:10.404Z,2.30
2018-12-25T02:37:38.672Z,2.30
2018-12-25T02:40:06.930Z,2.30
2018-12-25T02:42:35.256Z,2.32
2018-12-25T02:45:03.590Z,2.32
2018-12-25T02:47:31.875Z,2.32
2018-12-25T02:50:00.241Z,2.34
2018-12-25T02:52:28.568Z,2.35
2018-12-25T02:54:57.897Z,2.36
2018-12-25T02:57:26.290Z,2.36
2018-12-25T02:59:54.697Z,2.33
2018-12-25T03:02:23.017Z,2.29
2018-12-25T03:04:51.335Z,2.24
2018-12-25T03:07:19.611Z,2.20
2018-12-25T03:09:47.932Z,2.15
2018-12-25T03:12:16.192Z,2.09
2018-12-25T03:14:44.586Z,2.04
2018-12-25T03:17:16.628Z,1.93
2018-12-25T03:19:44.897Z,1.84
2018-12-25T03:22:13.188Z,1.71
2018-12-25T03:24:41.549Z,1.66
2018-12-25T03:27:09.887Z,1.67
2018-12-25T03:29:38.200Z,1.62
2018-12-25T03:32:06.478Z,1.51
2018-12-25T03:34:34.867Z,1.43
2018-12-25T03:37:03.137Z,1.34
2018-12-25T03:39:31.536Z,1.34
2018-12-25T03:41:59.794Z,1.30
2018-12-25T03:44:28.041Z,1.25
2018-12-25T03:46:56.315Z,1.22
2018-12-25T03:49:24.594Z,1.21
2018-12-25T03:51:53.013Z,1.15
2018-12-25T03:54:24.131Z,1.11
2018-12-25T03:56:52.470Z,1.05
2018-12-25T03:59:23.782Z,1.01
2018-12-25T04:01:52.181Z,1.01
2018-12-25T04:04:20.457Z,0.97
2018-12-25T04:06:48.731Z,0.85
2018-12-25T04:09:19.739Z,0.78
2018-12-25T04:11:48.071Z,0.81
2018-12-25T04:14:16.304Z,0.82
2018-12-25T04:16:44.671Z,0.86
2018-12-25T04:19:13.042Z,0.86
2018-12-25T04:21:41.280Z,-2.42
2018-12-25T04:24:09.539Z,0.82
2018-12-25T04:26:37.864Z,0.81
2018-12-25T04:29:07.739Z,0.82
2018-12-25T04:31:36.028Z,0.86
2018-12-25T04:34:04.288Z,0.81
2018-12-25T04:36:32.596Z,0.76
2018-12-25T04:39:00.863Z,0.79
2018-12-25T04:41:29.128Z,0.72
2018-12-25T04:43:57.395Z,0.77
2018-12-25T04:46:25.740Z,0.77
2018-12-25T04:48:54.019Z,0.76
2018-12-25T04:51:22.395Z,0.76
2018-12-25T04:53:50.672Z,0.77
2018-12-25T04:56:18.997Z,0.69
2018-12-25T04:58:47.374Z,0.73
2018-12-25T05:01:15.631Z,0.76
2018-12-25T05:03:43.971Z,0.81
2018-12-25T05:06:12.344Z,0.85
2018-12-25T05:08:40.652Z,0.87
2018-12-25T05:11:08.931Z,0.88
2018-12-25T05:13:37.222Z,-2.75
2018-12-25T05:16:05.464Z,0.92
2018-12-25T05:18:34.581Z,0.92
2018-12-25T05:21:03.038Z,0.93
2018-12-25T05:23:31.315Z,0.89
2018-12-25T05:25:59.602Z,0.91
2018-12-25T05:28:27.810Z,0.92
2018-12-25T05:30:56.077Z,0.94
2018-12-25T05:33:24.350Z,0.96
2018-12-25T05:35:52.695Z,0.99
2018-12-25T05:38:20.989Z,1.00
2018-12-25T05:40:49.229Z,1.02
2018-12-25T05:43:17.575Z,0.99
2018-12-25T05:45:45.878Z,1.00
2018-12-25T05:48:14.134Z,0.97
2018-12-25T05:50:46.594Z,0.96
2018-12-25T05:53:12.575Z,0.95
2018-12-25T05:55:40.846Z,0.92
2018-12-25T05:58:10.305Z,0.95
2018-12-25T06:00:38.527Z,0.95
2018-12-25T06:03:06.805Z,0.97
2018-12-25T06:05:35.146Z,0.97
2018-12-25T06:08:03.468Z,0.99
2018-12-25T06:10:31.740Z,0.98
2018-12-25T06:13:00.011Z,0.96
2018-12-25T06:15:28.282Z,0.97
2018-12-25T06:17:56.614Z,0.96
2018-12-25T06:20:26.559Z,0.97
2018-12-25T06:22:54.826Z,0.96
2018-12-25T06:25:23.147Z,0.96
2018-12-25T06:27:51.460Z,0.97
2018-12-25T06:30:19.757Z,0.98
2018-12-25T06:32:48.038Z,0.99
2018-12-25T06:35:16.453Z,0.99
2018-12-25T06:37:44.813Z,1.04
2018-12-25T06:40:13.172Z,1.03
2018-12-25T06:42:41.501Z,1.06
2018-12-25T06:45:09.922Z,1.08
2018-12-25T06:47:38.266Z,1.07
2018-12-25T06:50:06.575Z,1.06
2018-12-25T06:52:34.894Z,1.03
2018-12-25T06:55:03.244Z,-1.54
2018-12-25T06:57:31.504Z,1.03
2018-12-25T06:59:59.915Z,1.01
2018-12-25T07:02:28.220Z,1.05
2018-12-25T07:04:56.554Z,1.03
2018-12-25T07:07:24.849Z,1.01
2018-12-25T07:09:53.220Z,1.06
2018-12-25T07:12:21.503Z,1.05
2018-12-25T07:14:49.838Z,1.06
2018-12-25T07:17:18.153Z,1.10
2018-12-25T07:19:46.495Z,1.11
2018-12-25T07:22:14.747Z,1.08
2018-12-25T07:24:43.010Z,1.08
2018-12-25T07:27:11.280Z,1.09
2018-12-25T07:29:39.582Z,1.15
2018-12-25T07:32:07.926Z,1.14
2018-12-25T07:34:36.163Z,1.19
2018-12-25T07:37:04.433Z,1.23
2018-12-25T07:39:32.722Z,1.26
2018-12-25T07:42:01.035Z,1.29
2018-12-25T07:44:29.337Z,1.31
2018-12-25T07:46:57.595Z,1.34
2018-12-25T07:49:25.844Z,1.38
2018-12-25T07:51:54.154Z,1.40
2018-12-25T07:54:22.416Z,1.42
2018-12-25T07:56:50.694Z,1.45
2018-12-25T07:59:21.995Z,1.49
2018-12-25T08:01:50.262Z,1.52
2018-12-25T08:04:18.557Z,1.51
2018-12-25T08:06:46.823Z,1.52
2018-12-25T08:09:15.098Z,1.54
2018-12-25T08:11:43.469Z,1.57
2018-12-25T08:14:11.844Z,1.54
2018-12-25T08:16:43.200Z,1.54
2018-12-25T08:19:11.557Z,1.59
2018-12-25T08:21:39.845Z,1.59
2018-12-25T08:24:08.187Z,1.61
2018-12-25T08:26:36.481Z,1.68
2018-12-25T08:29:04.748Z,1.73
2018-12-25T08:31:33.047Z,1.70
2018-12-25T08:34:01.359Z,1.75
2018-12-25T08:36:29.659Z,1.83
2018-12-25T08:38:57.932Z,1.89
2018-12-25T08:41:26.190Z,1.94
2018-12-25T08:43:54.428Z,2.00
2018-12-25T08:46:22.773Z,1.99
2018-12-25T08:48:50.987Z,2.08
2018-12-25T08:51:19.261Z,2.10
2018-12-25T08:53:47.500Z,2.18
2018-12-25T08:56:15.744Z,2.22
2018-12-25T08:58:43.993Z,2.24
2018-12-25T09:01:12.237Z,2.31
2018-12-25T09:03:40.526Z,2.29
2018-12-25T09:06:08.772Z,2.32
2018-12-25T09:08:37.040Z,2.40
2018-12-25T09:11:05.318Z,2.46
2018-12-25T09:13:33.569Z,2.41
2018-12-25T09:16:01.815Z,2.51
2018-12-25T09:18:30.105Z,2.58
2018-12-25T09:20:58.308Z,2.60
2018-12-25T09:23:26.588Z,2.60
2018-12-25T09:25:54.826Z,2.58
2018-12-25T09:28:23.068Z,2.62
2018-12-25T09:30:51.318Z,2.68
2018-12-25T09:33:19.556Z,2.75
2018-12-25T09:35:47.828Z,2.81
2018-12-25T09:38:16.084Z,2.88
2018-12-25T09:40:44.320Z,2.87
2018-12-25T09:43:12.572Z,2.91
2018-12-25T09:45:40.817Z,2.90
2018-12-25T09:48:13.264Z,2.95
2018-12-25T09:50:39.125Z,3.01
2018-12-25T09:53:07.373Z,3.07
2018-12-25T09:55:35.617Z,3.13
2018-12-25T09:58:03.862Z,3.19
2018-12-25T10:00:32.140Z,3.24
2018-12-25T10:03:00.390Z,3.29
2018-12-25T10:05:28.626Z,3.36
2018-12-25T10:07:56.871Z,3.45
2018-12-25T10:10:25.131Z,3.48
2018-12-25T10:12:53.401Z,3.50
2018-12-25T10:15:21.647Z,3.57
2018-12-25T10:17:49.889Z,3.55
2018-12-25T10:20:18.132Z,3.58
2018-12-25T10:22:46.381Z,3.58
2018-12-25T10:25:14.649Z,3.67
2018-12-25T10:27:42.891Z,3.73
2018-12-25T10:30:11.140Z,3.76
2018-12-25T10:32:39.382Z,3.82
2018-12-25T10:35:07.635Z,3.88
2018-12-25T10:37:35.914Z,3.86
2018-12-25T10:40:05.193Z,3.84
2018-12-25T10:42:33.440Z,3.77
2018-12-25T10:45:01.685Z,3.76
2018-12-25T10:47:29.932Z,3.79
2018-12-25T10:49:58.200Z,3.67
2018-12-25T10:52:26.452Z,3.64
2018-12-25T10:54:54.692Z,3.74
2018-12-25T10:57:22.943Z,3.80
2018-12-25T10:59:51.189Z,3.84
2018-12-25T11:02:19.467Z,3.89
2018-12-25T11:04:48.110Z,3.90
2018-12-25T11:07:16.356Z,3.84
2018-12-25T11:09:44.598Z,3.73
2018-12-25T11:12:12.847Z,3.65
2018-12-25T11:14:41.283Z,3.61
2018-12-25T11:17:09.526Z,3.65
2018-12-25T11:19:37.777Z,3.69
2018-12-25T11:22:06.072Z,3.64
2018-12-25T11:24:34.319Z,3.64
2018-12-25T11:27:02.590Z,3.62
2018-12-25T11:29:30.835Z,3.63
2018-12-25T11:31:59.082Z,3.67
2018-12-25T11:34:27.328Z,3.66
2018-12-25T11:36:55.576Z,3.66
2018-12-25T11:39:23.847Z,3.64
2018-12-25T11:41:52.092Z,3.60
2018-12-25T11:44:20.341Z,3.62
2018-12-25T11:46:48.593Z,3.64
2018-12-25T11:49:16.848Z,3.69
2018-12-25T11:51:45.117Z,3.70
2018-12-25T11:54:13.361Z,3.69
2018-12-25T11:56:41.605Z,3.67
2018-12-25T11:59:09.849Z,3.69
2018-12-25T12:01:38.095Z,3.68
2018-12-25T12:04:06.371Z,3.70
2018-12-25T12:06:34.618Z,3.68
2018-12-25T12:09:02.954Z,3.58
2018-12-25T12:11:31.204Z,3.56
2018-12-25T12:13:59.442Z,3.59
2018-12-25T12:16:27.685Z,3.63
2018-12-25T12:18:55.955Z,3.66
2018-12-25T12:21:24.236Z,3.70
2018-12-25T12:23:52.485Z,3.70
2018-12-25T12:26:20.733Z,3.73
2018-12-25T12:28:49.059Z,3.75
2018-12-25T12:31:17.327Z,3.79
2018-12-25T12:33:46.085Z,3.77
2018-12-25T12:36:14.407Z,3.80
2018-12-25T12:38:42.657Z,3.84
2018-12-25T12:41:10.931Z,3.86
2018-12-25T12:43:39.180Z,3.90
2018-12-25T12:46:07.456Z,3.93
2018-12-25T12:48:35.690Z,3.96
2018-12-25T12:51:03.943Z,3.92
2018-12-25T12:53:32.188Z,3.87
2018-12-25T12:56:00.435Z,3.79
2018-12-25T12:58:28.704Z,3.83
2018-12-25T13:00:56.944Z,3.85
2018-12-25T13:03:25.258Z,3.81
2018-12-25T13:05:53.628Z,3.76
2018-12-25T13:08:21.844Z,3.54
2018-12-25T13:10:50.130Z,1.43
2018-12-25T13:13:21.262Z,3.75
2018-12-25T13:15:49.506Z,3.67
2018-12-25T13:18:17.795Z,3.70
2018-12-25T13:20:46.034Z,3.73
2018-12-25T13:23:14.285Z,3.75
2018-12-25T13:25:42.557Z,3.66
2018-12-25T13:28:10.802Z,3.56
2018-12-25T13:30:39.046Z,3.56
2018-12-25T13:33:07.316Z,3.54
2018-12-25T13:35:35.559Z,3.59
2018-12-25T13:38:03.808Z,3.54
2018-12-25T13:40:32.204Z,3.53
2018-12-25T13:43:00.503Z,3.50
2018-12-25T13:45:28.714Z,3.51
2018-12-25T13:47:56.975Z,3.51
2018-12-25T13:50:26.116Z,3.54
2018-12-25T13:53:02.563Z,3.53
2018-12-25T13:55:24.362Z,3.55
2018-12-25T13:57:52.608Z,3.57
2018-12-25T14:00:21.340Z,3.56
2018-12-25T14:02:49.983Z,3.57
2018-12-25T14:05:18.253Z,3.53
2018-12-25T14:07:46.509Z,3.54
2018-12-25T14:10:15.131Z,3.54
2018-12-25T14:12:43.378Z,3.50
2018-12-25T14:15:11.899Z,3.54
2018-12-25T14:17:40.239Z,3.53
2018-12-25T14:20:08.500Z,3.54
2018-12-25T14:22:37.045Z,3.56
2018-12-25T14:25:05.972Z,3.57
2018-12-25T14:27:34.228Z,3.57
2018-12-25T14:30:02.688Z,3.58
2018-12-25T14:32:30.939Z,3.58
2018-12-25T14:34:59.189Z,3.56
2018-12-25T14:37:27.430Z,3.58
2018-12-25T14:39:55.685Z,3.60
2018-12-25T14:42:23.923Z,3.63
2018-12-25T14:44:52.173Z,3.61
2018-12-25T14:47:20.415Z,3.60
2018-12-25T14:49:48.657Z,3.60
2018-12-25T14:52:18.551Z,3.58
2018-12-25T14:54:46.791Z,3.60
2018-12-25T14:57:15.040Z,3.59
2018-12-25T14:59:43.287Z,3.55
2018-12-25T15:02:11.526Z,3.59
2018-12-25T15:04:39.770Z,3.56
2018-12-25T15:07:08.470Z,3.57
2018-12-25T15:09:36.770Z,3.47
2018-12-25T15:12:05.025Z,3.46
2018-12-25T15:14:33.281Z,3.47
2018-12-25T15:17:01.524Z,3.46
2018-12-25T15:19:29.784Z,3.42
2018-12-25T15:21:58.034Z,3.41
2018-12-25T15:24:26.330Z,3.41
2018-12-25T15:26:54.650Z,3.39
2018-12-25T15:29:23.539Z,3.39
2018-12-25T15:31:51.920Z,3.37
2018-12-25T15:34:20.167Z,3.36
2018-12-25T15:36:48.409Z,3.32
2018-12-25T15:39:16.666Z,3.25
2018-12-25T15:41:44.914Z,3.22
2018-12-25T15:44:13.154Z,3.26
2018-12-25T15:46:41.404Z,3.25
2018-12-25T15:49:09.654Z,3.20
2018-12-25T15:51:37.966Z,3.20
2018-12-25T15:54:06.213Z,3.18
2018-12-25T15:56:34.534Z,3.15
2018-12-25T15:59:02.787Z,3.15
2018-12-25T16:01:31.031Z,3.10
2018-12-25T16:03:59.269Z,3.06
2018-12-25T16:06:27.519Z,3.08
2018-12-25T16:08:55.770Z,3.09
2018-12-25T16:11:24.020Z,3.08
2018-12-25T16:13:52.264Z,3.02
2018-12-25T16:16:20.514Z,3.01
2018-12-25T16:18:55.642Z,2.93
2018-12-25T16:21:23.923Z,2.91
2018-12-25T16:23:52.172Z,2.93
2018-12-25T16:26:20.406Z,2.95
2018-12-25T16:28:48.747Z,2.95
2018-12-25T16:31:16.981Z,2.94
2018-12-25T16:33:45.252Z,2.93
2018-12-25T16:36:13.526Z,2.93
2018-12-25T16:38:41.765Z,2.91
2018-12-25T16:41:10.017Z,2.86
2018-12-25T16:43:38.268Z,2.85
2018-12-25T16:46:06.532Z,2.83
2018-12-25T16:48:34.792Z,2.74
2018-12-25T16:51:03.033Z,1.61
2018-12-25T16:53:31.275Z,2.56
2018-12-25T16:55:59.536Z,2.51
2018-12-25T16:58:28.124Z,2.42
2018-12-25T17:00:56.704Z,2.33
2018-12-25T17:03:24.955Z,2.29
2018-12-25T17:05:53.510Z,2.21
2018-12-25T17:08:21.905Z,2.18
2018-12-25T17:10:50.178Z,2.08
2018-12-25T17:13:18.422Z,2.07
2018-12-25T17:15:46.670Z,2.03
2018-12-25T17:18:14.922Z,2.01
2018-12-25T17:20:43.180Z,1.98
2018-12-25T17:23:11.464Z,1.90
2018-12-25T17:25:40.055Z,1.84
2018-12-25T17:28:08.340Z,1.84
2018-12-25T17:30:36.679Z,1.81
2018-12-25T17:33:04.998Z,1.82
2018-12-25T17:35:39.308Z,1.78
2018-12-25T17:38:09.363Z,1.76
2018-12-25T17:40:38.249Z,1.74
2018-12-25T17:43:06.605Z,1.70
2018-12-25T17:45:34.903Z,1.68
2018-12-25T17:48:03.524Z,1.69
2018-12-25T17:50:31.920Z,1.66
2018-12-25T17:53:00.164Z,1.65
2018-12-25T17:55:28.484Z,1.63
2018-12-25T17:57:56.834Z,1.58
2018-12-25T18:00:25.200Z,1.58
2018-12-25T18:02:53.562Z,1.61
2018-12-25T18:05:22.211Z,1.57
2018-12-25T18:07:50.569Z,1.56
2018-12-25T18:10:18.968Z,1.57
2018-12-25T18:12:47.243Z,1.57
2018-12-25T18:15:15.500Z,1.48
2018-12-25T18:17:43.737Z,1.47
2018-12-25T18:20:12.157Z,1.44
2018-12-25T18:22:40.570Z,1.42
2018-12-25T18:25:08.842Z,1.37
2018-12-25T18:27:37.235Z,1.26
2018-12-25T18:30:07.020Z,1.28
2018-12-25T18:32:35.454Z,1.26
2018-12-25T18:35:04.021Z,1.28
2018-12-25T18:37:32.566Z,1.29
2018-12-25T18:40:01.144Z,1.27
2018-12-25T18:42:29.399Z,1.29
2018-12-25T18:44:57.832Z,1.25
2018-12-25T18:47:26.178Z,1.22
2018-12-25T18:49:54.494Z,1.22
2018-12-25T18:52:23.120Z,1.20
2018-12-25T18:54:51.493Z,1.19
2018-12-25T18:57:19.984Z,1.18
2018-12-25T18:59:48.519Z,1.15
2018-12-25T19:02:18.738Z,1.12
2018-12-25T19:04:46.756Z,1.09
2018-12-25T19:07:15.126Z,1.04
2018-12-25T19:09:43.631Z,1.02
2018-12-25T19:12:12.039Z,1.01
2018-12-25T19:14:43.655Z,1.00
2018-12-25T19:17:12.089Z,0.98
2018-12-25T19:19:40.683Z,0.90
2018-12-25T19:22:09.357Z,0.82
2018-12-25T19:24:37.755Z,0.86
2018-12-25T19:27:06.008Z,0.87
2018-12-25T19:29:34.264Z,-0.84
2018-12-25T19:32:02.869Z,0.75
2018-12-25T19:34:31.194Z,0.75
2018-12-25T19:36:59.660Z,0.76
2018-12-25T19:39:27.928Z,0.73
2018-12-25T19:41:56.233Z,0.72
2018-12-25T19:44:24.612Z,0.68
2018-12-25T19:46:53.134Z,0.71
2018-12-25T19:49:21.387Z,0.72
2018-12-25T19:51:50.158Z,0.73
2018-12-25T19:54:18.457Z,0.73
2018-12-25T19:56:46.785Z,0.72
2018-12-25T19:59:15.169Z,0.70
2018-12-25T20:01:43.452Z,0.67
2018-12-25T20:04:15.044Z,0.64
2018-12-25T20:06:55.689Z,0.61
2018-12-25T20:09:39.583Z,0.59
2018-12-25T20:12:39.861Z,0.58
2018-12-25T20:15:35.787Z,0.59
2018-12-25T20:18:25.671Z,0.56
2018-12-25T20:21:12.355Z,0.49
2018-12-25T20:23:59.017Z,0.47
2018-12-25T20:26:51.691Z,0.42
2018-12-25T20:29:57.976Z,0.43
2018-12-25T20:32:35.110Z,0.42
2018-12-25T20:35:18.269Z,0.33
2018-12-25T20:38:01.776Z,0.30
2018-12-25T20:40:36.350Z,0.31
2018-12-25T20:43:16.650Z,0.29
2018-12-25T20:46:04.938Z,0.20
2018-12-25T20:48:45.305Z,0.20
2018-12-25T20:51:28.731Z,0.17
2018-12-25T20:54:00.230Z,0.11
2018-12-25T20:56:48.227Z,0.07
2018-12-25T20:59:40.977Z,0.00
2018-12-25T21:02:46.978Z,-0.05
2018-12-25T21:05:47.149Z,-0.10
2018-12-25T21:08:44.533Z,-0.22
2018-12-25T21:11:19.122Z,-1.58
2018-12-25T21:13:50.658Z,-0.24
2018-12-25T21:16:30.923Z,-0.22
2018-12-25T21:19:25.446Z,-0.24
2018-12-25T21:22:10.484Z,-0.26
2018-12-25T21:25:15.784Z,-0.23
2018-12-25T21:27:43.354Z,-0.22
2018-12-25T21:30:13.565Z,-0.25
2018-12-25T21:32:41.816Z,-0.35
2018-12-25T21:35:18.904Z,-0.49
2018-12-25T21:37:47.595Z,-0.56
2018-12-25T21:40:16.259Z,-0.56
2018-12-25T21:42:44.541Z,-0.47
2018-12-25T21:45:12.854Z,-0.43
2018-12-25T21:47:41.369Z,-0.38
2018-12-25T21:50:09.643Z,-0.39
2018-12-25T21:52:37.897Z,-0.39
2018-12-25T21:55:08.616Z,-0.43
2018-12-25T21:57:37.435Z,-0.43
2018-12-25T22:00:08.958Z,-0.55
2018-12-25T22:02:37.276Z,-0.64
2018-12-25T22:05:05.525Z,-0.67
2018-12-25T22:07:33.798Z,-0.64
2018-12-25T22:10:02.061Z,-0.61
2018-12-25T22:12:30.301Z,-0.58
2018-12-25T22:14:58.583Z,-0.58
2018-12-25T22:17:27.088Z,-0.59
2018-12-25T22:19:55.407Z,-0.57
2018-12-25T22:22:23.668Z,-0.53
2018-12-25T22:24:51.980Z,-0.55
2018-12-25T22:27:20.455Z,-0.51
2018-12-25T22:29:48.735Z,-0.53
2018-12-25T22:32:17.021Z,-0.54
2018-12-25T22:34:45.279Z,-0.55
2018-12-25T22:37:13.522Z,-0.59
2018-12-25T22:39:41.789Z,-0.58
2018-12-25T22:42:10.116Z,-0.66
2018-12-25T22:44:38.342Z,-0.81
2018-12-25T22:47:06.637Z,-0.76
2018-12-25T22:49:34.906Z,-0.80
2018-12-25T22:52:03.188Z,-0.83
2018-12-25T22:54:31.498Z,-0.83
2018-12-25T22:56:59.829Z,-0.85
2018-12-25T22:59:28.079Z,-0.84
2018-12-25T23:01:56.404Z,-0.94
2018-12-25T23:04:24.667Z,-0.91
2018-12-25T23:06:52.947Z,-0.89
2018-12-25T23:09:21.204Z,-0.89
2018-12-25T23:11:49.453Z,-0.94
2018-12-25T23:14:17.784Z,-1.05
2018-12-25T23:16:46.029Z,-1.02
2018-12-25T23:19:14.306Z,-1.04
2018-12-25T23:21:42.767Z,-1.02
2018-12-25T23:24:11.138Z,-0.99
2018-12-25T23:26:41.495Z,-1.06
2018-12-25T23:29:09.831Z,-1.08
2018-12-25T23:31:38.225Z,-1.02
2018-12-25T23:34:06.491Z,-1.01
2018-12-25T23:36:34.782Z,-1.01
2018-12-25T23:39:03.120Z,-1.00
2018-12-25T23:41:31.385Z,-1.01
2018-12-25T23:43:59.684Z,-1.04
2018-12-25T23:46:28.024Z,-1.03
2018-12-25T23:48:56.281Z,-1.02
2018-12-25T23:51:24.552Z,-0.99
2018-12-25T23:53:52.832Z,-0.97
2018-12-25T23:56:22.710Z,-0.96
2018-12-25T23:58:51.109Z,-0.96
